sensor_id;sensor_type;location;lat;lon;timestamp;P1;durP1;ratioP1;P2;durP2;ratioP2
71572;SDS011;59408;51.032;9.410;2023-07-29T00:00:00;5.30;;;2.20;;
71572;SDS011;59408;51.032;9.410;2023-07-29T00:02:27;7.85;;;2.17;;
71572;SDS011;59408;51.032;9.410;2023-07-29T00:04:53;6.25;;;2.35;;
71572;SDS011;59408;51.032;9.410;2023-07-29T00:07:21;5.18;;;2.20;;
71572;SDS011;59408;51.032;9.410;2023-07-29T00:09:48;5.95;;;2.40;;
71572;SDS011;59408;51.032;9.410;2023-07-29T00:12:14;5.37;;;2.23;;
71572;SDS011;59408;51.032;9.410;2023-07-29T00:14:41;5.25;;;1.95;;
71572;SDS011;59408;51.032;9.410;2023-07-29T00:17:08;6.13;;;2.22;;
71572;SDS011;59408;51.032;9.410;2023-07-29T00:19:34;6.15;;;2.47;;
71572;SDS011;59408;51.032;9.410;2023-07-29T00:22:01;6.28;;;2.50;;
71572;SDS011;59408;51.032;9.410;2023-07-29T00:24:29;5.53;;;2.50;;
71572;SDS011;59408;51.032;9.410;2023-07-29T00:26:55;4.88;;;2.10;;
71572;SDS011;59408;51.032;9.410;2023-07-29T00:29:22;5.72;;;2.60;;
71572;SDS011;59408;51.032;9.410;2023-07-29T00:31:48;8.13;;;2.60;;
71572;SDS011;59408;51.032;9.410;2023-07-29T00:34:15;5.78;;;2.33;;
71572;SDS011;59408;51.032;9.410;2023-07-29T00:36:42;5.87;;;2.87;;
71572;SDS011;59408;51.032;9.410;2023-07-29T00:39:08;6.80;;;2.30;;
71572;SDS011;59408;51.032;9.410;2023-07-29T00:41:36;6.93;;;2.70;;
71572;SDS011;59408;51.032;9.410;2023-07-29T00:44:03;5.93;;;2.72;;
71572;SDS011;59408;51.032;9.410;2023-07-29T00:46:30;5.93;;;2.45;;
71572;SDS011;59408;51.032;9.410;2023-07-29T00:49:01;6.07;;;2.20;;
71572;SDS011;59408;51.032;9.410;2023-07-29T00:51:28;4.55;;;2.20;;
71572;SDS011;59408;51.032;9.410;2023-07-29T00:53:54;5.50;;;2.22;;
71572;SDS011;59408;51.032;9.410;2023-07-29T00:56:21;6.63;;;2.28;;
71572;SDS011;59408;51.032;9.410;2023-07-29T00:58:49;6.50;;;2.60;;
71572;SDS011;59408;51.032;9.410;2023-07-29T01:01:16;7.07;;;2.57;;
71572;SDS011;59408;51.032;9.410;2023-07-29T01:03:43;5.38;;;2.58;;
71572;SDS011;59408;51.032;9.410;2023-07-29T01:06:12;5.50;;;2.80;;
71572;SDS011;59408;51.032;9.410;2023-07-29T01:08:46;5.85;;;2.40;;
71572;SDS011;59408;51.032;9.410;2023-07-29T01:11:22;6.57;;;2.80;;
71572;SDS011;59408;51.032;9.410;2023-07-29T01:13:58;5.43;;;2.60;;
71572;SDS011;59408;51.032;9.410;2023-07-29T01:16:31;5.50;;;2.45;;
71572;SDS011;59408;51.032;9.410;2023-07-29T01:19:05;5.68;;;2.67;;
71572;SDS011;59408;51.032;9.410;2023-07-29T01:21:32;5.93;;;3.03;;
71572;SDS011;59408;51.032;9.410;2023-07-29T01:24:02;7.50;;;3.47;;
71572;SDS011;59408;51.032;9.410;2023-07-29T01:26:29;6.83;;;3.30;;
71572;SDS011;59408;51.032;9.410;2023-07-29T01:28:56;7.60;;;3.15;;
71572;SDS011;59408;51.032;9.410;2023-07-29T01:31:23;7.63;;;4.20;;
71572;SDS011;59408;51.032;9.410;2023-07-29T01:33:56;8.15;;;3.90;;
71572;SDS011;59408;51.032;9.410;2023-07-29T01:36:25;7.75;;;3.67;;
71572;SDS011;59408;51.032;9.410;2023-07-29T01:38:54;6.80;;;3.60;;
71572;SDS011;59408;51.032;9.410;2023-07-29T01:41:23;8.85;;;3.90;;
71572;SDS011;59408;51.032;9.410;2023-07-29T01:43:51;7.50;;;3.85;;
71572;SDS011;59408;51.032;9.410;2023-07-29T01:46:19;8.65;;;4.20;;
71572;SDS011;59408;51.032;9.410;2023-07-29T01:48:46;8.10;;;4.20;;
71572;SDS011;59408;51.032;9.410;2023-07-29T01:51:13;8.30;;;4.20;;
71572;SDS011;59408;51.032;9.410;2023-07-29T01:53:40;7.88;;;4.50;;
71572;SDS011;59408;51.032;9.410;2023-07-29T01:56:06;8.75;;;4.40;;
71572;SDS011;59408;51.032;9.410;2023-07-29T01:58:34;9.50;;;5.10;;
71572;SDS011;59408;51.032;9.410;2023-07-29T02:01:01;9.35;;;4.35;;
71572;SDS011;59408;51.032;9.410;2023-07-29T02:03:27;9.80;;;4.47;;
71572;SDS011;59408;51.032;9.410;2023-07-29T02:05:54;7.95;;;4.15;;
71572;SDS011;59408;51.032;9.410;2023-07-29T02:08:21;7.13;;;4.20;;
71572;SDS011;59408;51.032;9.410;2023-07-29T02:10:47;7.38;;;4.05;;
71572;SDS011;59408;51.032;9.410;2023-07-29T02:13:14;6.82;;;3.97;;
71572;SDS011;59408;51.032;9.410;2023-07-29T02:15:42;6.57;;;3.80;;
71572;SDS011;59408;51.032;9.410;2023-07-29T02:18:09;7.85;;;3.65;;
71572;SDS011;59408;51.032;9.410;2023-07-29T02:20:36;5.90;;;3.35;;
71572;SDS011;59408;51.032;9.410;2023-07-29T02:23:02;7.80;;;3.47;;
71572;SDS011;59408;51.032;9.410;2023-07-29T02:25:29;6.82;;;3.53;;
71572;SDS011;59408;51.032;9.410;2023-07-29T02:27:56;6.87;;;3.70;;
71572;SDS011;59408;51.032;9.410;2023-07-29T02:30:22;7.03;;;3.40;;
71572;SDS011;59408;51.032;9.410;2023-07-29T02:32:50;7.00;;;3.28;;
71572;SDS011;59408;51.032;9.410;2023-07-29T02:35:17;7.85;;;4.00;;
71572;SDS011;59408;51.032;9.410;2023-07-29T02:37:44;9.45;;;3.72;;
71572;SDS011;59408;51.032;9.410;2023-07-29T02:40:11;5.63;;;3.13;;
71572;SDS011;59408;51.032;9.410;2023-07-29T02:42:37;5.90;;;3.00;;
71572;SDS011;59408;51.032;9.410;2023-07-29T02:45:04;6.75;;;3.20;;
71572;SDS011;59408;51.032;9.410;2023-07-29T02:47:32;7.18;;;3.30;;
71572;SDS011;59408;51.032;9.410;2023-07-29T02:50:00;5.97;;;3.05;;
71572;SDS011;59408;51.032;9.410;2023-07-29T02:52:27;5.70;;;3.10;;
71572;SDS011;59408;51.032;9.410;2023-07-29T02:54:53;6.43;;;3.33;;
71572;SDS011;59408;51.032;9.410;2023-07-29T02:57:20;8.02;;;3.42;;
71572;SDS011;59408;51.032;9.410;2023-07-29T02:59:46;5.72;;;3.05;;
71572;SDS011;59408;51.032;9.410;2023-07-29T03:02:13;6.45;;;3.42;;
71572;SDS011;59408;51.032;9.410;2023-07-29T03:04:40;7.63;;;3.20;;
71572;SDS011;59408;51.032;9.410;2023-07-29T03:07:08;6.28;;;2.92;;
71572;SDS011;59408;51.032;9.410;2023-07-29T03:09:34;6.88;;;3.08;;
71572;SDS011;59408;51.032;9.410;2023-07-29T03:12:01;8.20;;;3.28;;
71572;SDS011;59408;51.032;9.410;2023-07-29T03:14:27;5.80;;;3.20;;
71572;SDS011;59408;51.032;9.410;2023-07-29T03:16:54;7.37;;;3.17;;
71572;SDS011;59408;51.032;9.410;2023-07-29T03:19:21;6.18;;;2.90;;
71572;SDS011;59408;51.032;9.410;2023-07-29T03:21:47;6.30;;;3.20;;
71572;SDS011;59408;51.032;9.410;2023-07-29T03:24:17;5.40;;;2.90;;
71572;SDS011;59408;51.032;9.410;2023-07-29T03:26:43;7.68;;;3.30;;
71572;SDS011;59408;51.032;9.410;2023-07-29T03:29:12;6.70;;;3.00;;
71572;SDS011;59408;51.032;9.410;2023-07-29T03:31:38;6.13;;;3.08;;
71572;SDS011;59408;51.032;9.410;2023-07-29T03:34:05;7.30;;;3.53;;
71572;SDS011;59408;51.032;9.410;2023-07-29T03:36:32;5.70;;;3.20;;
71572;SDS011;59408;51.032;9.410;2023-07-29T03:38:58;7.10;;;3.35;;
71572;SDS011;59408;51.032;9.410;2023-07-29T03:41:26;5.80;;;3.20;;
71572;SDS011;59408;51.032;9.410;2023-07-29T03:43:53;6.65;;;3.42;;
71572;SDS011;59408;51.032;9.410;2023-07-29T03:46:19;6.18;;;3.47;;
71572;SDS011;59408;51.032;9.410;2023-07-29T03:48:46;8.38;;;3.80;;
71572;SDS011;59408;51.032;9.410;2023-07-29T03:51:13;6.00;;;3.50;;
71572;SDS011;59408;51.032;9.410;2023-07-29T03:53:39;6.70;;;3.83;;
71572;SDS011;59408;51.032;9.410;2023-07-29T03:56:06;6.53;;;3.60;;
71572;SDS011;59408;51.032;9.410;2023-07-29T03:58:34;8.25;;;3.80;;
71572;SDS011;59408;51.032;9.410;2023-07-29T04:01:01;7.00;;;4.00;;
71572;SDS011;59408;51.032;9.410;2023-07-29T04:03:28;7.53;;;3.67;;
71572;SDS011;59408;51.032;9.410;2023-07-29T04:05:54;12.27;;;4.30;;
71572;SDS011;59408;51.032;9.410;2023-07-29T04:08:21;6.80;;;3.92;;
71572;SDS011;59408;51.032;9.410;2023-07-29T04:10:47;6.43;;;4.03;;
71572;SDS011;59408;51.032;9.410;2023-07-29T04:13:14;7.45;;;4.25;;
71572;SDS011;59408;51.032;9.410;2023-07-29T04:15:42;8.10;;;4.10;;
71572;SDS011;59408;51.032;9.410;2023-07-29T04:18:09;8.77;;;4.07;;
71572;SDS011;59408;51.032;9.410;2023-07-29T04:20:35;7.15;;;3.65;;
71572;SDS011;59408;51.032;9.410;2023-07-29T04:23:02;7.47;;;3.80;;
71572;SDS011;59408;51.032;9.410;2023-07-29T04:25:29;7.53;;;4.00;;
71572;SDS011;59408;51.032;9.410;2023-07-29T04:27:55;7.53;;;4.05;;
71572;SDS011;59408;51.032;9.410;2023-07-29T04:30:22;7.47;;;3.70;;
71572;SDS011;59408;51.032;9.410;2023-07-29T04:32:50;6.50;;;3.78;;
71572;SDS011;59408;51.032;9.410;2023-07-29T04:35:17;6.40;;;4.03;;
71572;SDS011;59408;51.032;9.410;2023-07-29T04:37:43;6.53;;;4.03;;
71572;SDS011;59408;51.032;9.410;2023-07-29T04:40:10;6.18;;;3.60;;
71572;SDS011;59408;51.032;9.410;2023-07-29T04:42:36;6.27;;;3.87;;
71572;SDS011;59408;51.032;9.410;2023-07-29T04:45:03;6.70;;;4.10;;
71572;SDS011;59408;51.032;9.410;2023-07-29T04:47:31;8.02;;;4.18;;
71572;SDS011;59408;51.032;9.410;2023-07-29T04:49:59;6.50;;;3.70;;
71572;SDS011;59408;51.032;9.410;2023-07-29T04:52:25;7.47;;;3.97;;
71572;SDS011;59408;51.032;9.410;2023-07-29T04:54:52;7.33;;;3.63;;
71572;SDS011;59408;51.032;9.410;2023-07-29T04:57:18;6.47;;;3.60;;
71572;SDS011;59408;51.032;9.410;2023-07-29T04:59:45;6.60;;;3.90;;
71572;SDS011;59408;51.032;9.410;2023-07-29T05:02:12;6.45;;;3.58;;
71572;SDS011;59408;51.032;9.410;2023-07-29T05:04:38;5.60;;;3.10;;
71572;SDS011;59408;51.032;9.410;2023-07-29T05:07:06;6.23;;;3.63;;
71572;SDS011;59408;51.032;9.410;2023-07-29T05:09:33;5.82;;;3.20;;
71572;SDS011;59408;51.032;9.410;2023-07-29T05:12:00;6.10;;;3.40;;
71572;SDS011;59408;51.032;9.410;2023-07-29T05:14:26;6.75;;;3.60;;
71572;SDS011;59408;51.032;9.410;2023-07-29T05:16:53;6.97;;;3.47;;
71572;SDS011;59408;51.032;9.410;2023-07-29T05:19:19;9.07;;;3.70;;
71572;SDS011;59408;51.032;9.410;2023-07-29T05:21:46;6.05;;;3.42;;
71572;SDS011;59408;51.032;9.410;2023-07-29T05:24:14;6.68;;;3.25;;
71572;SDS011;59408;51.032;9.410;2023-07-29T05:26:41;6.97;;;3.50;;
71572;SDS011;59408;51.032;9.410;2023-07-29T05:29:07;6.55;;;3.28;;
71572;SDS011;59408;51.032;9.410;2023-07-29T05:31:34;7.07;;;3.00;;
71572;SDS011;59408;51.032;9.410;2023-07-29T05:34:00;5.72;;;3.05;;
71572;SDS011;59408;51.032;9.410;2023-07-29T05:36:27;6.25;;;3.05;;
71572;SDS011;59408;51.032;9.410;2023-07-29T05:38:53;6.35;;;3.17;;
71572;SDS011;59408;51.032;9.410;2023-07-29T05:41:21;7.95;;;3.10;;
71572;SDS011;59408;51.032;9.410;2023-07-29T05:43:48;6.73;;;3.07;;
71572;SDS011;59408;51.032;9.410;2023-07-29T05:46:14;6.88;;;3.05;;
71572;SDS011;59408;51.032;9.410;2023-07-29T05:48:41;6.70;;;2.92;;
71572;SDS011;59408;51.032;9.410;2023-07-29T05:51:08;5.20;;;2.70;;
71572;SDS011;59408;51.032;9.410;2023-07-29T05:53:34;5.85;;;2.83;;
71572;SDS011;59408;51.032;9.410;2023-07-29T05:56:01;5.73;;;2.97;;
71572;SDS011;59408;51.032;9.410;2023-07-29T05:58:29;5.82;;;3.13;;
71572;SDS011;59408;51.032;9.410;2023-07-29T06:00:56;5.60;;;3.10;;
71572;SDS011;59408;51.032;9.410;2023-07-29T06:03:22;6.65;;;2.95;;
71572;SDS011;59408;51.032;9.410;2023-07-29T06:05:49;5.80;;;3.03;;
71572;SDS011;59408;51.032;9.410;2023-07-29T06:08:20;6.07;;;3.00;;
71572;SDS011;59408;51.032;9.410;2023-07-29T06:10:46;6.07;;;2.88;;
71572;SDS011;59408;51.032;9.410;2023-07-29T06:13:13;6.38;;;3.00;;
71572;SDS011;59408;51.032;9.410;2023-07-29T06:15:41;5.93;;;2.90;;
71572;SDS011;59408;51.032;9.410;2023-07-29T06:18:07;5.82;;;2.90;;
71572;SDS011;59408;51.032;9.410;2023-07-29T06:20:34;7.33;;;2.80;;
71572;SDS011;59408;51.032;9.410;2023-07-29T06:23:01;5.97;;;2.90;;
71572;SDS011;59408;51.032;9.410;2023-07-29T06:25:28;5.95;;;3.03;;
71572;SDS011;59408;51.032;9.410;2023-07-29T06:27:54;7.60;;;2.85;;
71572;SDS011;59408;51.032;9.410;2023-07-29T06:30:21;6.85;;;2.80;;
71572;SDS011;59408;51.032;9.410;2023-07-29T06:32:48;5.57;;;2.73;;
71572;SDS011;59408;51.032;9.410;2023-07-29T06:35:15;5.70;;;2.40;;
71572;SDS011;59408;51.032;9.410;2023-07-29T06:37:42;6.53;;;2.88;;
71572;SDS011;59408;51.032;9.410;2023-07-29T06:40:09;5.70;;;3.03;;
71572;SDS011;59408;51.032;9.410;2023-07-29T06:42:36;6.00;;;2.90;;
71572;SDS011;59408;51.032;9.410;2023-07-29T06:45:03;5.33;;;2.70;;
71572;SDS011;59408;51.032;9.410;2023-07-29T06:47:31;5.47;;;2.75;;
71572;SDS011;59408;51.032;9.410;2023-07-29T06:49:58;5.95;;;2.53;;
71572;SDS011;59408;51.032;9.410;2023-07-29T06:52:25;6.38;;;2.92;;
71572;SDS011;59408;51.032;9.410;2023-07-29T06:54:52;5.85;;;2.70;;
71572;SDS011;59408;51.032;9.410;2023-07-29T06:57:18;6.47;;;2.83;;
71572;SDS011;59408;51.032;9.410;2023-07-29T06:59:45;5.47;;;2.70;;
71572;SDS011;59408;51.032;9.410;2023-07-29T07:02:12;7.15;;;2.50;;
71572;SDS011;59408;51.032;9.410;2023-07-29T07:04:38;6.97;;;2.65;;
71572;SDS011;59408;51.032;9.410;2023-07-29T07:07:06;5.75;;;2.65;;
71572;SDS011;59408;51.032;9.410;2023-07-29T07:09:33;6.40;;;2.53;;
71572;SDS011;59408;51.032;9.410;2023-07-29T07:12:00;5.57;;;2.53;;
71572;SDS011;59408;51.032;9.410;2023-07-29T07:14:26;5.40;;;2.67;;
71572;SDS011;59408;51.032;9.410;2023-07-29T07:16:53;5.95;;;2.97;;
71572;SDS011;59408;51.032;9.410;2023-07-29T07:19:19;5.72;;;2.78;;
71572;SDS011;59408;51.032;9.410;2023-07-29T07:21:46;6.20;;;2.90;;
71572;SDS011;59408;51.032;9.410;2023-07-29T07:24:14;5.80;;;2.78;;
71572;SDS011;59408;51.032;9.410;2023-07-29T07:26:40;5.13;;;2.55;;
71572;SDS011;59408;51.032;9.410;2023-07-29T07:29:07;5.32;;;2.47;;
71572;SDS011;59408;51.032;9.410;2023-07-29T07:31:33;6.45;;;2.58;;
71572;SDS011;59408;51.032;9.410;2023-07-29T07:34:00;5.90;;;2.70;;
71572;SDS011;59408;51.032;9.410;2023-07-29T07:36:27;5.20;;;2.60;;
71572;SDS011;59408;51.032;9.410;2023-07-29T07:38:53;5.28;;;2.60;;
71572;SDS011;59408;51.032;9.410;2023-07-29T07:41:21;5.97;;;2.60;;
71572;SDS011;59408;51.032;9.410;2023-07-29T07:43:48;5.95;;;2.80;;
71572;SDS011;59408;51.032;9.410;2023-07-29T07:46:14;6.77;;;3.00;;
71572;SDS011;59408;51.032;9.410;2023-07-29T07:48:41;6.50;;;2.60;;
71572;SDS011;59408;51.032;9.410;2023-07-29T07:51:11;5.60;;;2.78;;
71572;SDS011;59408;51.032;9.410;2023-07-29T07:53:38;5.93;;;2.60;;
71572;SDS011;59408;51.032;9.410;2023-07-29T07:56:05;6.15;;;3.00;;
71572;SDS011;59408;51.032;9.410;2023-07-29T07:58:33;9.87;;;2.70;;
71572;SDS011;59408;51.032;9.410;2023-07-29T08:01:01;6.05;;;2.60;;
71572;SDS011;59408;51.032;9.410;2023-07-29T08:03:29;5.75;;;2.72;;
71572;SDS011;59408;51.032;9.410;2023-07-29T08:05:55;6.07;;;2.58;;
71572;SDS011;59408;51.032;9.410;2023-07-29T08:08:22;6.07;;;2.90;;
71572;SDS011;59408;51.032;9.410;2023-07-29T08:10:49;7.63;;;3.30;;
71572;SDS011;59408;51.032;9.410;2023-07-29T08:13:15;7.03;;;2.60;;
71572;SDS011;59408;51.032;9.410;2023-07-29T08:15:46;5.60;;;2.90;;
71572;SDS011;59408;51.032;9.410;2023-07-29T08:18:13;6.30;;;3.30;;
71572;SDS011;59408;51.032;9.410;2023-07-29T08:20:40;7.28;;;3.03;;
71572;SDS011;59408;51.032;9.410;2023-07-29T08:23:07;6.10;;;3.10;;
71572;SDS011;59408;51.032;9.410;2023-07-29T08:25:33;6.45;;;3.10;;
71572;SDS011;59408;51.032;9.410;2023-07-29T08:28:00;6.13;;;3.10;;
71572;SDS011;59408;51.032;9.410;2023-07-29T08:30:26;5.90;;;2.70;;
71572;SDS011;59408;51.032;9.410;2023-07-29T08:32:54;6.53;;;2.90;;
71572;SDS011;59408;51.032;9.410;2023-07-29T08:35:21;5.93;;;3.00;;
71572;SDS011;59408;51.032;9.410;2023-07-29T08:37:47;5.70;;;2.88;;
71572;SDS011;59408;51.032;9.410;2023-07-29T08:40:14;5.40;;;2.78;;
71572;SDS011;59408;51.032;9.410;2023-07-29T08:42:41;5.90;;;2.83;;
71572;SDS011;59408;51.032;9.410;2023-07-29T08:45:09;6.93;;;3.10;;
71572;SDS011;59408;51.032;9.410;2023-07-29T08:47:36;5.90;;;3.13;;
71572;SDS011;59408;51.032;9.410;2023-07-29T08:50:05;6.43;;;3.28;;
71572;SDS011;59408;51.032;9.410;2023-07-29T08:52:32;6.93;;;3.33;;
71572;SDS011;59408;51.032;9.410;2023-07-29T08:55:00;6.75;;;3.38;;
71572;SDS011;59408;51.032;9.410;2023-07-29T08:57:26;5.68;;;3.03;;
71572;SDS011;59408;51.032;9.410;2023-07-29T08:59:54;7.37;;;3.23;;
71572;SDS011;59408;51.032;9.410;2023-07-29T09:02:22;6.30;;;3.40;;
71572;SDS011;59408;51.032;9.410;2023-07-29T09:04:49;16.02;;;7.38;;
71572;SDS011;59408;51.032;9.410;2023-07-29T09:07:17;6.97;;;3.22;;
71572;SDS011;59408;51.032;9.410;2023-07-29T09:09:45;5.88;;;3.00;;
71572;SDS011;59408;51.032;9.410;2023-07-29T09:12:11;6.27;;;3.10;;
71572;SDS011;59408;51.032;9.410;2023-07-29T09:14:38;5.07;;;2.50;;
71572;SDS011;59408;51.032;9.410;2023-07-29T09:17:06;5.50;;;2.70;;
71572;SDS011;59408;51.032;9.410;2023-07-29T09:19:33;4.85;;;2.45;;
71572;SDS011;59408;51.032;9.410;2023-07-29T09:22:00;5.03;;;2.58;;
71572;SDS011;59408;51.032;9.410;2023-07-29T09:24:28;4.93;;;2.50;;
71572;SDS011;59408;51.032;9.410;2023-07-29T09:26:55;5.13;;;2.45;;
71572;SDS011;59408;51.032;9.410;2023-07-29T09:29:22;6.38;;;2.40;;
71572;SDS011;59408;51.032;9.410;2023-07-29T09:31:49;5.53;;;2.58;;
71572;SDS011;59408;51.032;9.410;2023-07-29T09:34:16;4.95;;;2.25;;
71572;SDS011;59408;51.032;9.410;2023-07-29T09:36:42;4.97;;;2.30;;
71572;SDS011;59408;51.032;9.410;2023-07-29T09:39:10;5.88;;;2.30;;
71572;SDS011;59408;51.032;9.410;2023-07-29T09:41:39;4.60;;;2.17;;
71572;SDS011;59408;51.032;9.410;2023-07-29T09:44:06;4.88;;;2.10;;
71572;SDS011;59408;51.032;9.410;2023-07-29T09:46:33;4.70;;;2.10;;
71572;SDS011;59408;51.032;9.410;2023-07-29T09:49:03;5.13;;;1.70;;
71572;SDS011;59408;51.032;9.410;2023-07-29T09:51:30;4.78;;;2.00;;
71572;SDS011;59408;51.032;9.410;2023-07-29T09:53:56;4.63;;;1.92;;
71572;SDS011;59408;51.032;9.410;2023-07-29T09:56:24;4.43;;;1.90;;
71572;SDS011;59408;51.032;9.410;2023-07-29T09:58:53;4.18;;;1.90;;
71572;SDS011;59408;51.032;9.410;2023-07-29T10:01:21;4.77;;;1.80;;
71572;SDS011;59408;51.032;9.410;2023-07-29T10:03:49;7.40;;;1.83;;
71572;SDS011;59408;51.032;9.410;2023-07-29T10:06:16;5.20;;;2.10;;
71572;SDS011;59408;51.032;9.410;2023-07-29T10:08:43;5.18;;;2.00;;
71572;SDS011;59408;51.032;9.410;2023-07-29T10:11:11;5.43;;;2.25;;
71572;SDS011;59408;51.032;9.410;2023-07-29T10:13:38;6.07;;;2.83;;
71572;SDS011;59408;51.032;9.410;2023-07-29T10:16:06;6.38;;;2.10;;
71572;SDS011;59408;51.032;9.410;2023-07-29T10:18:33;4.95;;;2.30;;
71572;SDS011;59408;51.032;9.410;2023-07-29T10:21:00;5.63;;;2.08;;
71572;SDS011;59408;51.032;9.410;2023-07-29T10:23:29;4.72;;;2.10;;
71572;SDS011;59408;51.032;9.410;2023-07-29T10:26:01;6.47;;;2.10;;
71572;SDS011;59408;51.032;9.410;2023-07-29T10:28:29;5.43;;;1.90;;
71572;SDS011;59408;51.032;9.410;2023-07-29T10:30:57;5.18;;;2.15;;
71572;SDS011;59408;51.032;9.410;2023-07-29T10:33:25;4.45;;;1.90;;
71572;SDS011;59408;51.032;9.410;2023-07-29T10:35:52;4.65;;;2.33;;
71572;SDS011;59408;51.032;9.410;2023-07-29T10:38:21;6.57;;;2.20;;
71572;SDS011;59408;51.032;9.410;2023-07-29T10:40:50;5.40;;;2.20;;
71572;SDS011;59408;51.032;9.410;2023-07-29T10:43:18;5.63;;;2.13;;
71572;SDS011;59408;51.032;9.410;2023-07-29T10:45:50;4.88;;;2.03;;
71572;SDS011;59408;51.032;9.410;2023-07-29T10:48:43;5.97;;;2.13;;
71572;SDS011;59408;51.032;9.410;2023-07-29T10:51:24;4.67;;;2.27;;
71572;SDS011;59408;51.032;9.410;2023-07-29T10:53:52;4.47;;;2.10;;
71572;SDS011;59408;51.032;9.410;2023-07-29T10:56:27;5.88;;;2.33;;
71572;SDS011;59408;51.032;9.410;2023-07-29T10:58:56;5.90;;;1.98;;
71572;SDS011;59408;51.032;9.410;2023-07-29T11:01:26;5.82;;;2.20;;
71572;SDS011;59408;51.032;9.410;2023-07-29T11:04:02;5.13;;;2.10;;
71572;SDS011;59408;51.032;9.410;2023-07-29T11:09:58;4.53;;;2.30;;
71572;SDS011;59408;51.032;9.410;2023-07-29T11:12:42;4.88;;;2.00;;
71572;SDS011;59408;51.032;9.410;2023-07-29T11:15:15;4.95;;;2.08;;
71572;SDS011;59408;51.032;9.410;2023-07-29T11:17:43;5.73;;;2.30;;
71572;SDS011;59408;51.032;9.410;2023-07-29T11:20:14;5.07;;;2.05;;
71572;SDS011;59408;51.032;9.410;2023-07-29T11:22:41;4.78;;;2.20;;
71572;SDS011;59408;51.032;9.410;2023-07-29T11:25:09;4.63;;;2.03;;
71572;SDS011;59408;51.032;9.410;2023-07-29T11:27:36;5.50;;;2.35;;
71572;SDS011;59408;51.032;9.410;2023-07-29T11:30:04;6.30;;;2.30;;
71572;SDS011;59408;51.032;9.410;2023-07-29T11:32:32;7.00;;;2.47;;
71572;SDS011;59408;51.032;9.410;2023-07-29T11:35:02;5.30;;;2.67;;
71572;SDS011;59408;51.032;9.410;2023-07-29T11:37:32;4.75;;;2.03;;
71572;SDS011;59408;51.032;9.410;2023-07-29T11:39:59;4.95;;;2.67;;
71572;SDS011;59408;51.032;9.410;2023-07-29T11:42:26;6.33;;;2.50;;
71572;SDS011;59408;51.032;9.410;2023-07-29T11:44:53;7.43;;;2.75;;
71572;SDS011;59408;51.032;9.410;2023-07-29T11:47:22;5.55;;;2.78;;
71572;SDS011;59408;51.032;9.410;2023-07-29T11:49:48;5.43;;;2.60;;
71572;SDS011;59408;51.032;9.410;2023-07-29T11:52:15;5.70;;;2.55;;
71572;SDS011;59408;51.032;9.410;2023-07-29T11:54:43;5.50;;;2.60;;
71572;SDS011;59408;51.032;9.410;2023-07-29T11:57:10;5.18;;;2.50;;
71572;SDS011;59408;51.032;9.410;2023-07-29T11:59:37;6.82;;;3.00;;
71572;SDS011;59408;51.032;9.410;2023-07-29T12:02:06;5.40;;;2.63;;
71572;SDS011;59408;51.032;9.410;2023-07-29T12:04:36;5.10;;;2.53;;
71572;SDS011;59408;51.032;9.410;2023-07-29T12:07:03;5.20;;;2.60;;
71572;SDS011;59408;51.032;9.410;2023-07-29T12:09:31;5.30;;;2.63;;
71572;SDS011;59408;51.032;9.410;2023-07-29T12:11:59;5.20;;;2.50;;
71572;SDS011;59408;51.032;9.410;2023-07-29T12:14:27;5.35;;;2.40;;
71572;SDS011;59408;51.032;9.410;2023-07-29T12:16:54;5.35;;;2.65;;
71572;SDS011;59408;51.032;9.410;2023-07-29T12:19:21;5.20;;;2.20;;
71572;SDS011;59408;51.032;9.410;2023-07-29T12:21:48;5.75;;;2.30;;
71572;SDS011;59408;51.032;9.410;2023-07-29T12:24:15;5.57;;;2.20;;
71572;SDS011;59408;51.032;9.410;2023-07-29T12:26:41;5.45;;;2.42;;
71572;SDS011;59408;51.032;9.410;2023-07-29T12:29:13;6.85;;;2.47;;
71572;SDS011;59408;51.032;9.410;2023-07-29T12:31:39;5.77;;;2.70;;
71572;SDS011;59408;51.032;9.410;2023-07-29T12:34:06;6.35;;;3.10;;
71572;SDS011;59408;51.032;9.410;2023-07-29T12:36:43;7.25;;;3.33;;
71572;SDS011;59408;51.032;9.410;2023-07-29T12:39:16;5.82;;;2.92;;
71572;SDS011;59408;51.032;9.410;2023-07-29T12:41:44;5.78;;;3.33;;
71572;SDS011;59408;51.032;9.410;2023-07-29T12:44:10;6.53;;;3.33;;
71572;SDS011;59408;51.032;9.410;2023-07-29T12:46:42;7.30;;;2.90;;
71572;SDS011;59408;51.032;9.410;2023-07-29T12:49:09;6.55;;;2.88;;
71572;SDS011;59408;51.032;9.410;2023-07-29T12:51:35;5.78;;;3.10;;
71572;SDS011;59408;51.032;9.410;2023-07-29T12:54:02;6.43;;;2.72;;
71572;SDS011;59408;51.032;9.410;2023-07-29T12:56:29;6.50;;;3.27;;
71572;SDS011;59408;51.032;9.410;2023-07-29T12:58:56;6.05;;;3.10;;
71572;SDS011;59408;51.032;9.410;2023-07-29T13:01:24;6.60;;;3.25;;
71572;SDS011;59408;51.032;9.410;2023-07-29T13:03:51;6.55;;;3.20;;
71572;SDS011;59408;51.032;9.410;2023-07-29T13:06:18;6.20;;;2.83;;
71572;SDS011;59408;51.032;9.410;2023-07-29T13:08:44;6.43;;;3.00;;
71572;SDS011;59408;51.032;9.410;2023-07-29T13:11:11;5.72;;;2.95;;
71572;SDS011;59408;51.032;9.410;2023-07-29T13:13:38;6.45;;;2.85;;
71572;SDS011;59408;51.032;9.410;2023-07-29T13:16:05;6.03;;;3.10;;
71572;SDS011;59408;51.032;9.410;2023-07-29T13:18:33;7.78;;;3.28;;
71572;SDS011;59408;51.032;9.410;2023-07-29T13:21:00;5.60;;;2.70;;
71572;SDS011;59408;51.032;9.410;2023-07-29T13:23:27;4.82;;;2.17;;
71572;SDS011;59408;51.032;9.410;2023-07-29T13:25:53;5.40;;;2.35;;
71572;SDS011;59408;51.032;9.410;2023-07-29T13:28:20;5.07;;;2.10;;
71572;SDS011;59408;51.032;9.410;2023-07-29T13:30:46;5.20;;;2.20;;
71572;SDS011;59408;51.032;9.410;2023-07-29T13:33:13;4.57;;;2.03;;
71572;SDS011;59408;51.032;9.410;2023-07-29T13:35:41;5.47;;;2.22;;
71572;SDS011;59408;51.032;9.410;2023-07-29T13:38:08;5.55;;;2.03;;
71572;SDS011;59408;51.032;9.410;2023-07-29T13:40:34;5.13;;;2.17;;
71572;SDS011;59408;51.032;9.410;2023-07-29T13:43:03;5.90;;;2.40;;
71572;SDS011;59408;51.032;9.410;2023-07-29T13:45:30;6.47;;;2.10;;
71572;SDS011;59408;51.032;9.410;2023-07-29T13:47:57;4.85;;;2.25;;
71572;SDS011;59408;51.032;9.410;2023-07-29T13:50:23;6.38;;;2.33;;
71572;SDS011;59408;51.032;9.410;2023-07-29T13:52:51;5.40;;;2.20;;
71572;SDS011;59408;51.032;9.410;2023-07-29T13:55:18;5.65;;;2.50;;
71572;SDS011;59408;51.032;9.410;2023-07-29T13:57:44;5.40;;;2.47;;
71572;SDS011;59408;51.032;9.410;2023-07-29T14:00:11;5.57;;;2.30;;
71572;SDS011;59408;51.032;9.410;2023-07-29T14:02:38;5.85;;;2.50;;
71572;SDS011;59408;51.032;9.410;2023-07-29T14:05:05;5.43;;;2.72;;
71572;SDS011;59408;51.032;9.410;2023-07-29T14:07:32;5.60;;;2.55;;
71572;SDS011;59408;51.032;9.410;2023-07-29T14:10:00;5.57;;;2.27;;
71572;SDS011;59408;51.032;9.410;2023-07-29T14:12:27;5.18;;;2.38;;
71572;SDS011;59408;51.032;9.410;2023-07-29T14:14:54;4.95;;;2.53;;
71572;SDS011;59408;51.032;9.410;2023-07-29T14:17:21;5.15;;;2.55;;
71572;SDS011;59408;51.032;9.410;2023-07-29T14:19:47;5.13;;;2.50;;
71572;SDS011;59408;51.032;9.410;2023-07-29T14:22:14;5.10;;;2.43;;
71572;SDS011;59408;51.032;9.410;2023-07-29T14:24:40;6.05;;;2.30;;
71572;SDS011;59408;51.032;9.410;2023-07-29T14:27:08;4.82;;;2.50;;
71572;SDS011;59408;51.032;9.410;2023-07-29T14:29:35;5.72;;;2.83;;
71572;SDS011;59408;51.032;9.410;2023-07-29T14:32:01;4.80;;;2.42;;
71572;SDS011;59408;51.032;9.410;2023-07-29T14:34:28;4.63;;;2.20;;
71572;SDS011;59408;51.032;9.410;2023-07-29T14:36:55;5.15;;;2.20;;
71572;SDS011;59408;51.032;9.410;2023-07-29T14:39:21;5.43;;;2.40;;
71572;SDS011;59408;51.032;9.410;2023-07-29T14:41:48;4.40;;;2.30;;
71572;SDS011;59408;51.032;9.410;2023-07-29T14:44:16;5.38;;;2.38;;
71572;SDS011;59408;51.032;9.410;2023-07-29T14:46:42;6.80;;;2.57;;
71572;SDS011;59408;51.032;9.410;2023-07-29T14:49:09;4.82;;;2.40;;
71572;SDS011;59408;51.032;9.410;2023-07-29T14:54:22;6.47;;;2.85;;